Fulton, Mississippi
Current Conditions -  °F | °C
As of 6:53 AM on Thursday 23 Oct 2014 (Local Time) from KTUP Reporting Station
Clear Clear  
Wind Chill: 34°   Ceiling: Unl
Heat Index: 40°   Visibility: 10mi
Dew Point: 37°   Wind: 8mph
Humidity: 89%   Direction: 30°NNE
Pressure: 30.16"   Gusts: NA
Location:  34.27°N, 88.41°W
Report Text: KTUP 231153Z 03007KT 10SM CLR 04/03 A3016 RMK AO2 SLP213 T00440028 10089 20039 53003
Loading
Personal Weather Stations






























Interactive Weather Map
Tropical Storm Tracking
New forecast layout! Learn more

10-Day Weather Forecast

Advertisements
Track Severe Weather on mobile